Time;durP1;ratioP1;P1;durP2;ratioP2;P2;SDS_P1;SDS_P2;PMS_P1;PMS_P2;Temp;Humidity;BMP_temperature;BMP_pressure;BME280_temperature;BME280_humidity;BME280_pressure;Samples;Min_cycle;Max_cycle;Signal;HPM_P1;HPM_P2
2022/11/06 00:00:22;;;;;;;29.38;14.35;;;5.90;99.90;;;;;;5051859;28;20050;-87
2022/11/06 00:02:48;;;;;;;23.63;13.30;;;5.90;99.90;;;;;;5052733;28;20040;-86
2022/11/06 00:07:59;;;;;;;28.98;14.88;;;5.90;99.90;;;;;;5086829;28;20032;-85
2022/11/06 00:10:25;;;;;;;28.00;13.80;;;5.90;99.90;;;;;;5061712;28;20120;-86
2022/11/06 00:12:51;;;;;;;28.98;14.88;;;5.80;99.90;;;;;;5060558;28;20029;-85
2022/11/06 00:15:16;;;;;;;27.55;13.30;;;5.90;99.90;;;;;;5049145;28;20086;-86
2022/11/06 00:17:42;;;;;;;27.42;14.27;;;5.90;99.90;;;;;;5049995;28;20025;-86
2022/11/06 00:20:09;;;;;;;24.50;14.00;;;5.90;99.90;;;;;;5041274;28;20136;-85
2022/11/06 00:22:36;;;;;;;24.20;13.73;;;5.80;99.90;;;;;;5044377;28;20873;-85
2022/11/06 00:25:03;;;;;;;23.85;14.35;;;5.80;99.90;;;;;;5068853;28;20034;-84
2022/11/06 00:27:29;;;;;;;24.88;13.63;;;5.80;99.90;;;;;;5052858;28;20039;-84
2022/11/06 00:29:55;;;;;;;29.10;13.52;;;5.80;99.90;;;;;;5065257;28;20040;-86
2022/11/06 00:32:21;;;;;;;26.05;14.65;;;5.80;99.90;;;;;;5066382;28;20028;-84
2022/11/06 00:34:47;;;;;;;27.25;13.95;;;5.80;99.90;;;;;;5066037;28;20481;-85
2022/11/06 00:37:13;;;;;;;23.98;13.82;;;5.70;99.90;;;;;;5066608;28;20143;-85
2022/11/06 00:39:39;;;;;;;23.85;14.10;;;5.80;99.90;;;;;;5051853;28;20037;-84
2022/11/06 00:42:05;;;;;;;22.45;13.52;;;5.70;99.90;;;;;;5064999;28;20036;-84
2022/11/06 00:44:30;;;;;;;23.75;13.75;;;5.70;99.90;;;;;;5046291;28;20048;-85
2022/11/06 00:46:56;;;;;;;22.38;13.50;;;5.70;99.90;;;;;;5066522;28;20032;-86
2022/11/06 00:49:22;;;;;;;26.80;13.55;;;5.70;99.90;;;;;;5052295;28;20035;-86
2022/11/06 00:51:48;;;;;;;24.02;13.13;;;5.60;99.90;;;;;;5051399;28;20562;-84
2022/11/06 00:54:14;;;;;;;24.55;14.55;;;5.60;99.90;;;;;;5068672;28;20024;-85
2022/11/06 00:56:40;;;;;;;21.83;12.45;;;5.60;99.90;;;;;;5068941;28;20055;-86
2022/11/06 00:59:10;;;;;;;23.23;12.52;;;5.60;99.90;;;;;;5068757;28;20116;-85
2022/11/06 01:01:38;;;;;;;20.63;12.77;;;5.70;99.90;;;;;;5063719;28;20021;-85
2022/11/06 01:04:24;;;;;;;23.75;12.73;;;5.60;99.90;;;;;;5049310;28;20050;-86
2022/11/06 01:06:52;;;;;;;23.40;12.47;;;5.60;99.90;;;;;;5065923;28;20033;-85
2022/11/06 01:09:21;;;;;;;23.40;12.77;;;5.60;99.90;;;;;;5051927;28;20817;-83
2022/11/06 01:11:50;;;;;;;25.45;13.32;;;5.60;99.90;;;;;;5085527;28;20115;-87
2022/11/06 01:14:18;;;;;;;24.95;13.10;;;5.60;99.90;;;;;;5086021;28;20564;-86
2022/11/06 01:16:45;;;;;;;23.23;12.70;;;5.60;99.90;;;;;;5052885;28;20043;-85
2022/11/06 01:19:13;;;;;;;22.05;12.43;;;5.60;99.90;;;;;;5052653;28;20428;-85
2022/11/06 01:21:41;;;;;;;21.48;12.77;;;5.60;99.90;;;;;;5072266;28;20039;-85
2022/11/06 01:24:13;;;;;;;20.60;11.35;;;5.60;99.90;;;;;;5073046;28;20028;-86
2022/11/06 01:26:40;;;;;;;23.50;12.55;;;5.60;99.90;;;;;;5072449;28;20046;-85
2022/11/06 01:29:10;;;;;;;21.52;11.63;;;5.60;99.90;;;;;;5087809;28;20027;-85
2022/11/06 01:31:36;;;;;;;21.95;13.15;;;5.60;99.90;;;;;;5065952;28;20413;-84
2022/11/06 01:34:02;;;;;;;22.90;12.43;;;5.70;99.90;;;;;;5052868;28;20039;-84
2022/11/06 01:36:29;;;;;;;22.88;12.05;;;5.60;99.90;;;;;;5051780;28;20044;-85
2022/11/06 01:38:58;;;;;;;22.70;13.60;;;5.60;99.90;;;;;;5068870;28;20024;-84
2022/11/06 01:41:34;;;;;;;21.85;12.98;;;5.60;99.90;;;;;;5071521;28;20024;-86
2022/11/06 01:44:04;;;;;;;18.90;11.63;;;5.60;99.90;;;;;;5070127;28;20036;-84
2022/11/06 01:46:33;;;;;;;20.67;12.35;;;5.50;99.90;;;;;;5035214;28;20037;-85
2022/11/06 01:49:07;;;;;;;20.30;11.73;;;5.50;99.90;;;;;;5051314;28;20392;-85
2022/11/06 01:51:38;;;;;;;21.10;11.65;;;5.50;99.90;;;;;;5063455;28;20501;-85
2022/11/06 01:54:06;;;;;;;18.20;10.77;;;5.50;99.90;;;;;;5051294;28;20068;-85
2022/11/06 01:56:32;;;;;;;19.90;11.55;;;5.40;99.90;;;;;;5035657;28;20095;-85
2022/11/06 01:58:58;;;;;;;18.08;10.05;;;5.40;99.90;;;;;;5034769;28;20094;-84
2022/11/06 02:01:23;;;;;;;21.25;11.80;;;5.30;99.90;;;;;;5063283;28;20107;-85
2022/11/06 02:04:21;;;;;;;16.85;10.82;;;5.30;99.90;;;;;;5050542;28;20040;-85
2022/11/06 02:06:47;;;;;;;18.45;11.15;;;5.30;99.90;;;;;;5049662;28;20659;-85
2022/11/06 02:09:14;;;;;;;18.13;10.88;;;5.20;99.90;;;;;;5052961;28;20078;-84
2022/11/06 02:11:45;;;;;;;21.45;11.80;;;5.20;99.90;;;;;;5072849;28;20036;-85
2022/11/06 02:14:39;;;;;;;21.05;11.20;;;5.20;99.90;;;;;;5075337;28;20044;-88
2022/11/06 02:17:27;;;;;;;22.85;12.18;;;5.10;99.90;;;;;;5075359;28;20028;-86
2022/11/06 02:19:56;;;;;;;19.63;11.38;;;5.10;99.90;;;;;;5075045;28;20024;-86
2022/11/06 02:22:46;;;;;;;18.17;10.93;;;5.00;99.90;;;;;;5075336;28;20152;-88
2022/11/06 02:25:33;;;;;;;17.15;10.43;;;5.00;99.90;;;;;;5075728;28;20075;-88
2022/11/06 02:28:07;;;;;;;18.02;11.15;;;4.90;99.90;;;;;;5071157;28;20127;-86
2022/11/06 02:30:40;;;;;;;15.38;10.20;;;4.90;99.90;;;;;;5070970;28;20500;-86
2022/11/06 02:33:11;;;;;;;19.27;11.27;;;4.80;99.90;;;;;;5088821;28;20043;-85
2022/11/06 02:35:55;;;;;;;19.30;10.85;;;4.80;99.90;;;;;;5071093;28;20495;-84
2022/11/06 02:38:30;;;;;;;19.80;10.98;;;4.70;99.90;;;;;;5073589;28;20044;-84
2022/11/06 02:41:00;;;;;;;17.50;9.65;;;4.70;99.90;;;;;;5061526;28;20040;-84
2022/11/06 02:43:31;;;;;;;17.40;10.75;;;4.60;99.90;;;;;;5057147;28;20254;-85
2022/11/06 02:46:19;;;;;;;17.60;10.45;;;4.60;99.90;;;;;;5050367;28;20025;-84
2022/11/06 02:48:49;;;;;;;19.38;10.75;;;4.60;99.90;;;;;;5051502;28;20070;-85
2022/11/06 02:51:20;;;;;;;17.60;9.90;;;4.60;99.90;;;;;;5060641;28;20058;-85
2022/11/06 02:53:47;;;;;;;19.17;11.43;;;4.60;99.90;;;;;;5051707;28;20066;-87
2022/11/06 02:56:25;;;;;;;17.90;10.25;;;4.60;99.90;;;;;;5054875;28;20038;-85
2022/11/06 02:59:08;;;;;;;19.48;10.48;;;4.60;99.90;;;;;;5055736;28;20032;-84
2022/11/06 03:01:44;;;;;;;17.88;10.48;;;4.60;99.90;;;;;;5087180;28;20023;-85
2022/11/06 03:04:21;;;;;;;17.27;10.45;;;4.60;99.90;;;;;;5071327;28;20134;-85
2022/11/06 03:07:33;;;;;;;20.05;10.05;;;4.60;99.90;;;;;;5071912;28;20043;-84
2022/11/06 03:09:58;;;;;;;19.88;11.27;;;4.60;99.90;;;;;;5054933;28;20041;-83
2022/11/06 03:12:29;;;;;;;15.77;10.02;;;4.70;99.90;;;;;;5051158;28;20079;-86
2022/11/06 03:15:19;;;;;;;18.02;10.70;;;4.70;99.90;;;;;;5051453;28;20485;-84
2022/11/06 03:18:13;;;;;;;19.10;9.82;;;4.70;99.90;;;;;;5068153;28;20078;-86
2022/11/06 03:20:51;;;;;;;18.85;10.52;;;4.60;99.90;;;;;;5085910;28;20035;-84
2022/11/06 03:23:30;;;;;;;16.70;9.95;;;4.60;99.90;;;;;;5079148;28;20028;-84
2022/11/06 03:26:01;;;;;;;17.58;10.45;;;4.60;99.90;;;;;;5070472;28;20523;-84
2022/11/06 03:28:32;;;;;;;16.73;10.43;;;4.60;99.90;;;;;;5087971;28;20028;-84
2022/11/06 03:31:04;;;;;;;17.40;9.32;;;4.50;99.90;;;;;;5063896;28;20033;-84
2022/11/06 03:33:36;;;;;;;16.20;10.05;;;4.50;99.90;;;;;;5054102;28;20037;-84
2022/11/06 03:36:06;;;;;;;16.42;9.55;;;4.50;99.90;;;;;;5053311;28;20440;-84
2022/11/06 03:38:47;;;;;;;18.15;10.60;;;4.50;99.90;;;;;;5050094;28;20046;-84
2022/11/06 03:41:22;;;;;;;16.98;10.10;;;4.50;99.90;;;;;;5049348;28;20035;-83
2022/11/06 03:43:51;;;;;;;17.25;10.00;;;4.40;99.90;;;;;;5050173;28;20771;-86
2022/11/06 03:46:19;;;;;;;15.90;9.25;;;4.40;99.90;;;;;;5050553;28;20119;-86
2022/11/06 03:48:50;;;;;;;16.27;9.75;;;4.30;99.90;;;;;;5050776;28;20486;-84
2022/11/06 03:51:21;;;;;;;15.95;9.32;;;4.30;99.90;;;;;;5049084;28;20469;-84
2022/11/06 03:53:55;;;;;;;21.90;9.90;;;4.30;99.90;;;;;;5050111;28;20127;-85
2022/11/06 03:56:34;;;;;;;14.20;8.93;;;4.20;99.90;;;;;;5034244;28;20033;-85
2022/11/06 03:59:04;;;;;;;17.15;9.77;;;4.10;99.90;;;;;;5051082;28;20033;-84
2022/11/06 04:01:38;;;;;;;16.65;8.98;;;4.10;99.90;;;;;;5079580;28;20024;-85
2022/11/06 04:04:10;;;;;;;19.20;9.48;;;4.10;99.90;;;;;;5068948;28;20032;-84
2022/11/06 04:06:39;;;;;;;18.02;9.13;;;4.10;99.90;;;;;;5054498;28;20047;-84
2022/11/06 04:14:44;;;;;;;17.02;10.27;;;4.10;99.90;;;;;;5052202;28;20032;-83
2022/11/06 04:17:13;;;;;;;15.38;9.85;;;4.00;99.90;;;;;;5033304;28;20028;-85
2022/11/06 04:19:46;;;;;;;17.25;9.77;;;3.90;99.90;;;;;;5055459;28;20664;-84
2022/11/06 04:22:33;;;;;;;17.45;9.05;;;3.90;99.90;;;;;;5077619;28;20032;-85
2022/11/06 04:28:21;;;;;;;14.57;8.50;;;3.80;99.90;;;;;;5087219;28;20153;-83
2022/11/06 04:31:22;;;;;;;17.15;9.20;;;3.80;99.90;;;;;;5085677;28;20020;-85
2022/11/06 04:34:03;;;;;;;18.27;9.25;;;3.80;99.90;;;;;;5061847;28;20047;-85
2022/11/06 04:36:46;;;;;;;16.25;9.18;;;3.80;99.90;;;;;;5069302;28;20228;-83
2022/11/06 04:39:16;;;;;;;18.33;9.57;;;3.70;99.90;;;;;;5051401;28;20044;-85
2022/11/06 04:42:14;;;;;;;17.98;9.18;;;3.60;99.90;;;;;;5085230;28;20063;-85
2022/11/06 04:44:45;;;;;;;15.57;9.82;;;3.70;99.90;;;;;;5058377;28;20050;-84
2022/11/06 04:47:15;;;;;;;18.65;9.98;;;3.70;99.90;;;;;;5070577;28;20075;-85
2022/11/06 04:49:42;;;;;;;17.52;9.10;;;3.60;99.90;;;;;;5041954;28;20023;-85
2022/11/06 04:52:16;;;;;;;15.20;9.02;;;3.60;99.90;;;;;;5091326;28;20039;-84
2022/11/06 04:54:44;;;;;;;18.90;9.13;;;3.60;99.90;;;;;;5075053;28;20471;-84
2022/11/06 04:57:10;;;;;;;16.23;9.98;;;3.60;99.90;;;;;;5042117;28;20035;-84
2022/11/06 04:59:36;;;;;;;16.30;9.27;;;3.60;99.90;;;;;;5057702;28;20040;-83
2022/11/06 05:02:03;;;;;;;16.45;9.43;;;3.60;99.90;;;;;;5089440;28;20032;-85
2022/11/06 05:04:29;;;;;;;18.38;10.30;;;3.60;99.90;;;;;;5054959;28;20032;-86
2022/11/06 05:06:55;;;;;;;20.70;9.73;;;3.60;99.90;;;;;;5055179;28;20032;-86
2022/11/06 05:09:21;;;;;;;17.95;10.68;;;3.60;99.90;;;;;;5055396;28;20779;-85
2022/11/06 05:11:46;;;;;;;17.33;9.65;;;3.70;99.90;;;;;;5074656;28;20115;-87
2022/11/06 05:14:12;;;;;;;23.48;12.00;;;3.80;99.90;;;;;;5040961;28;20097;-86
2022/11/06 05:16:38;;;;;;;21.58;11.35;;;3.90;99.90;;;;;;5091847;28;20055;-86
2022/11/06 05:19:04;;;;;;;26.00;11.32;;;4.00;99.90;;;;;;5041711;28;20543;-86
2022/11/06 05:24:14;;;;;;;24.88;11.05;;;4.10;99.90;;;;;;5076818;28;20127;-85
2022/11/06 05:26:40;;;;;;;22.23;11.18;;;4.20;99.90;;;;;;5058070;28;20131;-85
2022/11/06 05:29:06;;;;;;;25.85;12.23;;;4.20;99.90;;;;;;5073935;28;20036;-85
2022/11/06 05:31:32;;;;;;;23.25;11.95;;;4.30;99.90;;;;;;5054813;28;20035;-86
2022/11/06 05:33:58;;;;;;;27.83;13.00;;;4.40;99.90;;;;;;5039195;28;20436;-85
2022/11/06 05:36:24;;;;;;;22.38;11.35;;;4.40;99.90;;;;;;5053395;28;20398;-86
2022/11/06 05:38:50;;;;;;;22.95;10.85;;;4.40;99.90;;;;;;5038296;28;20035;-86
2022/11/06 05:41:16;;;;;;;21.70;11.00;;;4.40;99.90;;;;;;5053326;28;20060;-85
2022/11/06 05:43:42;;;;;;;23.73;11.32;;;4.50;99.90;;;;;;5051797;28;20048;-85
2022/11/06 05:46:08;;;;;;;26.52;11.82;;;4.50;99.90;;;;;;5054035;28;20029;-86
2022/11/06 05:48:33;;;;;;;25.17;12.07;;;4.50;99.90;;;;;;5054135;28;20062;-85
2022/11/06 05:51:05;;;;;;;26.02;11.93;;;4.60;99.90;;;;;;5069403;28;20070;-84
2022/11/06 05:53:32;;;;;;;25.02;12.80;;;4.60;99.90;;;;;;5076096;28;20439;-85
2022/11/06 05:55:58;;;;;;;22.77;10.82;;;4.60;99.90;;;;;;5036846;28;20044;-85
2022/11/06 05:58:25;;;;;;;26.17;12.20;;;4.60;99.90;;;;;;5069219;28;20032;-85
2022/11/06 06:00:51;;;;;;;22.73;11.55;;;4.60;99.90;;;;;;5069315;28;20028;-86
2022/11/06 06:03:16;;;;;;;20.85;11.27;;;4.70;99.90;;;;;;5040844;28;20153;-85
2022/11/06 06:05:42;;;;;;;25.05;11.57;;;4.70;99.90;;;;;;5036597;28;20075;-85
2022/11/06 06:08:08;;;;;;;26.27;12.50;;;4.80;99.90;;;;;;5053189;28;20040;-86
2022/11/06 06:10:34;;;;;;;26.50;13.10;;;4.80;99.90;;;;;;5067449;28;20043;-86
2022/11/06 06:12:59;;;;;;;25.13;12.13;;;4.80;99.90;;;;;;5072483;28;20120;-86
2022/11/06 06:15:25;;;;;;;28.92;12.88;;;4.80;99.90;;;;;;5056077;28;20409;-85
2022/11/06 06:17:51;;;;;;;25.08;12.25;;;4.90;99.90;;;;;;5056322;28;20036;-85
2022/11/06 06:20:17;;;;;;;29.23;13.35;;;4.80;99.90;;;;;;5072052;28;20084;-87
2022/11/06 06:22:42;;;;;;;26.02;13.10;;;4.90;99.90;;;;;;5051822;28;20036;-85
2022/11/06 06:25:08;;;;;;;29.15;12.57;;;4.90;99.90;;;;;;5072905;28;20450;-86
2022/11/06 06:27:36;;;;;;;24.83;12.52;;;4.90;99.90;;;;;;5072792;28;20036;-86
2022/11/06 06:30:02;;;;;;;25.50;12.63;;;4.90;99.90;;;;;;5055731;28;20032;-85
2022/11/06 06:32:28;;;;;;;24.92;12.52;;;4.90;99.90;;;;;;5055752;28;20040;-86
2022/11/06 06:34:53;;;;;;;27.13;12.82;;;4.90;99.90;;;;;;5089867;28;20077;-85
2022/11/06 06:37:19;;;;;;;31.67;13.20;;;4.90;99.90;;;;;;5089862;28;20085;-85
2022/11/06 06:39:46;;;;;;;28.58;12.48;;;4.80;99.90;;;;;;5038611;28;20028;-86
2022/11/06 06:42:11;;;;;;;28.23;13.45;;;4.80;99.90;;;;;;5064676;28;20032;-85
2022/11/06 06:44:37;;;;;;;33.10;12.98;;;4.70;99.90;;;;;;5052647;28;20024;-85
2022/11/06 06:47:03;;;;;;;27.45;12.80;;;4.70;99.90;;;;;;5019965;28;20486;-85
2022/11/06 06:49:29;;;;;;;27.92;11.70;;;4.80;99.90;;;;;;5052481;28;20077;-85
2022/11/06 06:51:55;;;;;;;25.73;13.48;;;4.80;99.90;;;;;;5052451;28;20067;-85
2022/11/06 06:54:20;;;;;;;28.40;13.48;;;4.90;99.90;;;;;;5072455;28;20043;-85
2022/11/06 06:56:47;;;;;;;30.45;14.25;;;5.00;99.90;;;;;;5039530;28;20035;-86
2022/11/06 06:59:13;;;;;;;30.65;12.57;;;5.00;99.90;;;;;;5039065;28;20036;-85
2022/11/06 07:01:38;;;;;;;27.30;12.73;;;5.00;99.90;;;;;;5048944;28;20028;-83
2022/11/06 07:04:05;;;;;;;24.45;12.40;;;5.00;99.90;;;;;;5051624;28;20040;-84
2022/11/06 07:06:31;;;;;;;24.88;12.55;;;5.10;99.90;;;;;;5023892;28;20032;-84
2022/11/06 07:08:57;;;;;;;24.50;11.05;;;5.10;99.90;;;;;;5086244;28;20578;-84
2022/11/06 07:11:22;;;;;;;21.30;10.82;;;5.10;99.90;;;;;;5053724;28;20092;-83
2022/11/06 07:13:48;;;;;;;24.08;11.95;;;5.10;99.90;;;;;;5067415;28;20066;-82
2022/11/06 07:16:14;;;;;;;24.98;12.50;;;5.20;99.90;;;;;;5052721;28;20040;-84
2022/11/06 07:18:40;;;;;;;29.33;13.45;;;5.10;99.90;;;;;;5037244;28;20024;-84
2022/11/06 07:21:08;;;;;;;23.27;11.77;;;5.10;99.90;;;;;;5049827;28;20484;-83
2022/11/06 07:23:35;;;;;;;25.52;11.77;;;5.10;99.90;;;;;;5062265;28;20119;-82
2022/11/06 07:26:01;;;;;;;21.60;11.65;;;5.10;99.90;;;;;;5053730;28;20032;-85
2022/11/06 07:28:27;;;;;;;23.52;10.95;;;5.10;99.90;;;;;;5087638;28;20040;-83
2022/11/06 07:31:01;;;;;;;19.73;10.52;;;5.20;99.90;;;;;;5069979;28;20032;-83
2022/11/06 07:33:28;;;;;;;20.23;10.77;;;5.30;99.90;;;;;;5069242;28;20380;-82
2022/11/06 07:35:54;;;;;;;24.45;11.85;;;5.30;99.90;;;;;;5087304;28;20047;-83
2022/11/06 07:38:20;;;;;;;22.67;11.48;;;5.30;99.90;;;;;;5089356;28;20032;-86
2022/11/06 07:40:45;;;;;;;27.67;12.90;;;5.40;99.90;;;;;;5089532;28;20096;-84
2022/11/06 07:43:12;;;;;;;25.63;12.18;;;5.30;99.90;;;;;;5073177;28;20737;-81
2022/11/06 07:45:38;;;;;;;22.92;11.75;;;5.30;99.90;;;;;;5054914;28;20038;-83
2022/11/06 07:48:05;;;;;;;24.38;11.02;;;5.30;99.90;;;;;;5073778;28;20031;-85
2022/11/06 07:50:31;;;;;;;25.27;12.52;;;5.30;99.90;;;;;;5071929;28;20589;-85
2022/11/06 07:52:57;;;;;;;24.95;12.70;;;5.40;99.90;;;;;;5071813;28;20036;-86
2022/11/06 07:55:23;;;;;;;25.27;11.68;;;5.50;99.90;;;;;;5056845;28;20043;-86
2022/11/06 07:57:49;;;;;;;19.92;11.35;;;5.60;99.90;;;;;;5069652;28;20500;-85
2022/11/06 08:00:15;;;;;;;23.17;11.77;;;5.60;99.90;;;;;;5047551;28;20028;-87
2022/11/06 08:02:42;;;;;;;21.95;11.30;;;5.50;99.90;;;;;;5056082;28;20085;-86
2022/11/06 08:05:08;;;;;;;23.63;11.95;;;5.40;99.90;;;;;;5064861;28;20036;-82
2022/11/06 08:07:34;;;;;;;21.88;11.93;;;5.30;99.90;;;;;;5068733;28;20036;-82
2022/11/06 08:10:00;;;;;;;20.55;10.43;;;5.30;99.90;;;;;;5034662;28;20135;-84
2022/11/06 08:12:26;;;;;;;24.00;11.68;;;5.30;99.90;;;;;;5052025;28;20120;-82
2022/11/06 08:14:52;;;;;;;20.23;11.40;;;5.40;99.90;;;;;;5054227;28;20575;-83
2022/11/06 08:17:17;;;;;;;19.50;10.35;;;5.30;99.90;;;;;;5070207;28;20065;-84
2022/11/06 08:19:43;;;;;;;17.25;9.15;;;5.10;99.90;;;;;;5054410;28;20042;-83
2022/11/06 08:22:09;;;;;;;16.70;9.70;;;5.10;99.90;;;;;;5088256;28;20032;-85
2022/11/06 08:24:35;;;;;;;20.15;10.30;;;5.10;99.90;;;;;;5053141;28;20039;-82
2022/11/06 08:27:01;;;;;;;17.65;9.63;;;5.10;99.90;;;;;;5054672;28;20028;-81
2022/11/06 08:29:27;;;;;;;18.95;9.45;;;5.00;99.90;;;;;;5072362;28;20051;-83
2022/11/06 08:31:53;;;;;;;20.45;9.73;;;5.10;99.90;;;;;;5051000;28;20060;-85
2022/11/06 08:34:20;;;;;;;20.95;10.02;;;4.90;99.90;;;;;;5080257;28;20034;-83
2022/11/06 08:36:46;;;;;;;25.13;11.27;;;4.90;99.90;;;;;;5065452;28;20209;-83
2022/11/06 08:39:12;;;;;;;20.92;10.68;;;5.00;99.90;;;;;;5065755;28;20051;-81
2022/11/06 08:41:39;;;;;;;22.38;11.15;;;5.00;99.90;;;;;;5066744;28;20028;-82
2022/11/06 08:44:05;;;;;;;20.88;11.25;;;5.00;99.90;;;;;;5064163;28;20081;-82
2022/11/06 08:46:31;;;;;;;22.85;11.48;;;5.20;99.90;;;;;;5069209;28;20032;-84
2022/11/06 08:48:58;;;;;;;21.27;10.70;;;5.30;99.90;;;;;;5066835;28;20085;-82
2022/11/06 08:51:24;;;;;;;22.83;11.15;;;5.40;99.90;;;;;;5049610;28;20040;-82
2022/11/06 08:53:50;;;;;;;20.17;10.85;;;5.40;99.90;;;;;;5082538;28;20033;-84
2022/11/06 08:56:16;;;;;;;21.45;10.55;;;5.60;99.90;;;;;;5052149;28;20131;-84
2022/11/06 08:58:42;;;;;;;19.05;9.98;;;5.60;99.90;;;;;;5087607;28;20465;-83
2022/11/06 09:01:08;;;;;;;15.95;9.82;;;5.70;99.90;;;;;;5032859;28;20036;-83
2022/11/06 09:03:34;;;;;;;20.17;11.45;;;5.60;99.90;;;;;;5051546;28;20033;-84
2022/11/06 09:05:59;;;;;;;18.98;10.82;;;5.60;99.90;;;;;;5066109;28;20544;-83
2022/11/06 09:08:25;;;;;;;17.75;10.60;;;5.60;99.90;;;;;;5088115;28;20127;-84
2022/11/06 09:10:51;;;;;;;19.75;11.07;;;5.80;99.90;;;;;;5049921;28;20472;-83
2022/11/06 09:13:17;;;;;;;21.38;11.10;;;5.90;99.90;;;;;;5039527;28;20035;-83
2022/11/06 09:15:43;;;;;;;19.65;10.45;;;5.90;99.90;;;;;;5046971;28;20425;-82
2022/11/06 09:18:10;;;;;;;19.13;10.25;;;6.00;99.90;;;;;;5073402;28;20713;-84
2022/11/06 09:20:36;;;;;;;22.08;10.63;;;6.00;99.90;;;;;;5080319;28;20157;-82
2022/11/06 09:23:07;;;;;;;17.67;9.93;;;6.10;99.90;;;;;;5076695;28;20049;-82
2022/11/06 09:25:33;;;;;;;18.95;10.15;;;6.10;99.90;;;;;;5039422;28;20056;-82
2022/11/06 09:27:59;;;;;;;15.85;9.52;;;6.10;99.90;;;;;;5051638;28;20604;-81
2022/11/06 09:30:28;;;;;;;15.27;9.07;;;6.20;99.90;;;;;;5055687;28;20080;-83
2022/11/06 09:32:57;;;;;;;16.75;9.10;;;6.20;99.90;;;;;;5042570;28;20024;-82
2022/11/06 09:35:25;;;;;;;14.50;9.68;;;6.30;99.90;;;;;;5071316;28;20065;-81
2022/11/06 09:37:51;;;;;;;15.27;9.23;;;6.20;99.90;;;;;;5073587;28;20457;-82
2022/11/06 09:40:20;;;;;;;19.17;9.02;;;6.30;99.90;;;;;;5081952;28;20564;-82
2022/11/06 09:43:04;;;;;;;17.35;9.75;;;6.50;99.90;;;;;;5036148;28;20037;-82
2022/11/06 09:45:32;;;;;;;17.65;9.85;;;6.40;99.90;;;;;;5089347;28;20024;-81
2022/11/06 09:48:14;;;;;;;17.08;9.73;;;6.40;99.90;;;;;;5067428;28;20165;-84
2022/11/06 09:50:47;;;;;;;15.68;9.18;;;6.40;99.90;;;;;;5071933;28;20424;-80
2022/11/06 09:53:18;;;;;;;20.88;10.48;;;6.40;99.90;;;;;;5072414;28;20404;-81
2022/11/06 09:55:47;;;;;;;16.30;9.48;;;6.40;99.90;;;;;;5068940;28;20112;-82
2022/11/06 09:58:36;;;;;;;15.50;9.52;;;6.40;99.90;;;;;;5069332;28;20016;-82
2022/11/06 10:01:12;;;;;;;15.10;9.30;;;6.50;99.90;;;;;;5086608;28;20024;-81
2022/11/06 10:03:55;;;;;;;19.85;9.65;;;6.60;99.90;;;;;;5068625;28;20518;-81
2022/11/06 10:06:22;;;;;;;16.52;9.68;;;6.60;99.90;;;;;;5089930;28;20028;-83
2022/11/06 10:08:50;;;;;;;17.73;8.82;;;6.50;99.90;;;;;;5056717;28;20036;-83
2022/11/06 10:11:16;;;;;;;16.38;9.00;;;6.50;99.90;;;;;;5051850;28;20043;-82
2022/11/06 10:13:45;;;;;;;13.75;8.57;;;6.60;99.90;;;;;;5051495;28;20120;-83
2022/11/06 10:16:23;;;;;;;17.10;10.60;;;6.70;99.90;;;;;;5070683;28;20473;-82
2022/11/06 10:19:03;;;;;;;16.65;9.52;;;6.80;99.90;;;;;;5069864;28;20074;-81
2022/11/06 10:21:36;;;;;;;14.82;8.80;;;7.00;99.90;;;;;;5084904;28;20032;-80
2022/11/06 10:24:20;;;;;;;13.95;9.65;;;7.10;99.90;;;;;;5069812;28;20033;-83
2022/11/06 10:26:56;;;;;;;16.98;9.05;;;6.90;99.90;;;;;;5070743;28;20032;-84
2022/11/06 10:29:50;;;;;;;14.95;8.23;;;6.70;99.90;;;;;;5054574;28;20036;-80
2022/11/06 10:32:44;;;;;;;13.65;8.05;;;6.60;99.90;;;;;;5076163;28;20040;-82
2022/11/06 10:35:24;;;;;;;15.63;8.65;;;6.50;99.90;;;;;;5067821;28;20396;-83
2022/11/06 10:37:57;;;;;;;15.65;9.05;;;6.60;99.90;;;;;;5078504;28;20031;-83
2022/11/06 10:40:28;;;;;;;12.95;8.10;;;6.60;99.90;;;;;;5064255;28;20058;-82
2022/11/06 10:43:06;;;;;;;17.40;9.38;;;6.60;99.90;;;;;;5085337;28;20517;-83
2022/11/06 10:45:33;;;;;;;17.67;9.10;;;6.60;99.90;;;;;;5086643;28;20122;-82
2022/11/06 10:48:09;;;;;;;16.15;9.20;;;6.60;99.90;;;;;;5053892;28;20036;-80
2022/11/06 10:51:09;;;;;;;15.90;9.80;;;6.50;99.90;;;;;;5067897;28;20083;-81
2022/11/06 10:53:59;;;;;;;16.52;9.50;;;6.50;99.90;;;;;;5054551;28;20078;-82
2022/11/06 10:56:31;;;;;;;17.42;9.18;;;6.60;99.90;;;;;;5053203;28;20525;-83
2022/11/06 10:58:57;;;;;;;15.50;9.45;;;6.70;99.90;;;;;;5052853;28;20039;-81
2022/11/06 11:01:23;;;;;;;15.02;9.30;;;6.70;99.90;;;;;;5094941;28;20073;-81
2022/11/06 11:03:50;;;;;;;17.60;9.43;;;6.70;99.90;;;;;;5074323;28;20130;-84
2022/11/06 11:06:16;;;;;;;15.70;9.23;;;6.80;99.90;;;;;;5055932;28;20036;-84
2022/11/06 11:08:45;;;;;;;14.48;9.32;;;6.80;99.90;;;;;;5050109;28;20048;-82
2022/11/06 11:11:13;;;;;;;17.88;9.80;;;6.90;99.90;;;;;;5068331;28;20111;-82
2022/11/06 11:13:40;;;;;;;18.95;10.52;;;6.90;99.90;;;;;;5071738;28;20032;-82
2022/11/06 11:16:20;;;;;;;18.08;10.18;;;6.80;99.90;;;;;;5072328;28;20032;-80
2022/11/06 11:18:47;;;;;;;21.25;10.75;;;6.90;99.90;;;;;;5073826;28;20669;-81
2022/11/06 11:21:18;;;;;;;19.25;10.75;;;6.80;99.90;;;;;;5087965;28;20498;-80
2022/11/06 11:23:44;;;;;;;18.08;10.63;;;6.90;99.90;;;;;;5054497;28;20038;-80
2022/11/06 11:26:21;;;;;;;19.27;11.02;;;6.90;99.90;;;;;;5088912;28;20534;-81
2022/11/06 11:28:55;;;;;;;19.45;10.45;;;7.00;99.90;;;;;;5088290;28;20091;-81
2022/11/06 11:31:32;;;;;;;19.98;10.57;;;7.00;99.90;;;;;;5088321;28;20686;-81
2022/11/06 11:34:03;;;;;;;19.55;10.60;;;7.10;99.90;;;;;;5071779;28;20027;-82
2022/11/06 11:36:50;;;;;;;21.92;11.02;;;7.10;99.90;;;;;;5054742;28;20085;-81
2022/11/06 11:39:17;;;;;;;17.45;10.65;;;7.30;99.90;;;;;;5071462;28;20054;-83
2022/11/06 11:41:43;;;;;;;17.95;10.90;;;7.40;99.90;;;;;;5048513;28;20033;-81
2022/11/06 11:44:17;;;;;;;20.25;10.55;;;7.50;99.90;;;;;;5039552;28;20038;-82
2022/11/06 11:46:53;;;;;;;19.05;10.65;;;7.40;99.90;;;;;;5071517;28;20396;-80
2022/11/06 11:49:30;;;;;;;16.73;9.85;;;7.30;99.90;;;;;;5089317;28;20544;-81
2022/11/06 11:51:59;;;;;;;18.80;10.73;;;7.20;99.90;;;;;;5069839;28;20048;-80
2022/11/06 11:54:29;;;;;;;16.50;9.80;;;7.20;99.90;;;;;;5087806;28;20028;-80
2022/11/06 11:57:07;;;;;;;19.02;10.98;;;7.10;99.90;;;;;;5087366;28;20108;-80
2022/11/06 11:59:49;;;;;;;19.92;9.93;;;7.10;99.90;;;;;;5053788;28;20050;-80
2022/11/06 12:02:18;;;;;;;17.73;9.73;;;7.10;99.90;;;;;;5079073;28;20063;-82
2022/11/06 12:04:51;;;;;;;19.23;9.48;;;7.10;99.90;;;;;;5067007;28;20447;-82
2022/11/06 12:07:29;;;;;;;18.25;9.35;;;7.10;99.90;;;;;;5070160;28;20032;-82
2022/11/06 12:09:55;;;;;;;14.88;9.23;;;7.00;99.90;;;;;;5071590;28;20059;-82
2022/11/06 12:12:25;;;;;;;17.10;9.65;;;7.00;99.90;;;;;;5056354;28;20106;-82
2022/11/06 12:15:32;;;;;;;19.45;11.05;;;7.00;99.90;;;;;;5065537;28;20043;-80
2022/11/06 12:18:05;;;;;;;15.75;9.50;;;7.00;99.90;;;;;;5062984;28;20147;-79
2022/11/06 12:20:55;;;;;;;18.58;9.73;;;7.10;99.90;;;;;;5059765;28;20031;-80
2022/11/06 12:23:47;;;;;;;17.02;9.35;;;7.20;99.90;;;;;;5065623;28;20492;-81
2022/11/06 12:26:32;;;;;;;15.57;9.50;;;7.40;99.90;;;;;;5082167;28;20032;-83
2022/11/06 12:29:12;;;;;;;16.55;10.00;;;7.40;99.90;;;;;;5067144;28;20500;-81
2022/11/06 12:31:44;;;;;;;15.88;9.27;;;7.60;99.90;;;;;;5059142;28;20097;-83
2022/11/06 12:34:18;;;;;;;12.88;8.55;;;7.70;99.90;;;;;;5072564;28;20145;-82
2022/11/06 12:36:59;;;;;;;15.15;9.23;;;7.90;99.90;;;;;;5066090;28;20124;-82
2022/11/06 12:39:32;;;;;;;15.07;8.82;;;8.00;99.90;;;;;;5062404;28;20732;-82
2022/11/06 12:42:03;;;;;;;14.43;8.57;;;8.00;99.90;;;;;;5047783;28;20478;-80
2022/11/06 12:44:28;;;;;;;11.65;7.30;;;7.90;99.90;;;;;;5053131;28;20652;-82
2022/11/06 12:47:38;;;;;;;14.27;8.45;;;7.90;99.90;;;;;;5070249;28;20028;-80
2022/11/06 12:50:27;;;;;;;14.48;8.85;;;7.80;99.90;;;;;;5103472;28;20059;-82
2022/11/06 12:53:08;;;;;;;14.55;8.63;;;7.90;99.90;;;;;;5069013;28;20028;-82
2022/11/06 12:55:40;;;;;;;14.68;8.38;;;8.00;99.90;;;;;;5069412;28;20071;-82
2022/11/06 12:58:49;;;;;;;13.57;9.15;;;8.10;99.90;;;;;;5063038;28;20036;-82
2022/11/06 13:01:25;;;;;;;15.43;8.30;;;8.20;99.90;;;;;;5057837;28;20384;-81
2022/11/06 13:04:09;;;;;;;12.68;7.70;;;8.30;99.90;;;;;;5062894;28;20481;-80
2022/11/06 13:07:03;;;;;;;11.40;6.95;;;8.10;99.90;;;;;;5080712;28;20036;-81
2022/11/06 13:09:39;;;;;;;11.85;7.22;;;8.00;99.90;;;;;;5071969;28;20036;-80
2022/11/06 13:12:35;;;;;;;12.73;7.32;;;8.00;99.90;;;;;;5086580;28;20163;-82
2022/11/06 13:15:01;;;;;;;11.38;7.20;;;7.90;99.90;;;;;;5071803;28;20451;-82